Time;durP1;ratioP1;P1;durP2;ratioP2;P2;SDS_P1;SDS_P2;PMS_P1;PMS_P2;Temp;Humidity;BMP_temperature;BMP_pressure;BME280_temperature;BME280_humidity;BME280_pressure;Samples;Min_cycle;Max_cycle;Signal;HPM_P1;HPM_P2
2021/01/03 00:01:54;;;;;;;38.95;28.60;;;;;;;12.78;52.24;100485.41;4885539;28;97850;-59
2021/01/03 00:04:20;;;;;;;41.60;29.58;;;;;;;12.78;52.32;100478.09;4903723;28;98367;-58
2021/01/03 00:06:50;;;;;;;40.10;29.58;;;;;;;12.77;52.30;100475.66;4901473;28;128707;-59
2021/01/03 00:09:16;;;;;;;40.55;29.52;;;;;;;12.80;52.19;100458.88;4903167;28;98276;-58
2021/01/03 00:11:42;;;;;;;40.22;29.67;;;;;;;12.75;52.22;100459.72;4902564;28;111534;-59
2021/01/03 00:14:08;;;;;;;40.60;29.77;;;;;;;12.76;52.07;100450.50;4902995;28;99149;-59
2021/01/03 00:16:35;;;;;;;41.67;30.90;;;;;;;12.75;52.09;100438.09;4902505;28;127148;-58
2021/01/03 00:19:01;;;;;;;42.15;30.08;;;;;;;12.74;52.07;100439.19;4902603;28;116739;-59
2021/01/03 00:21:27;;;;;;;42.05;31.10;;;;;;;12.74;52.37;100441.09;4902341;28;117753;-59
2021/01/03 00:23:53;;;;;;;43.38;31.25;;;;;;;12.73;52.02;100444.84;4901347;28;128078;-59
2021/01/03 00:26:19;;;;;;;45.53;31.98;;;;;;;12.71;51.87;100447.84;4902487;28;117802;-58
2021/01/03 00:28:45;;;;;;;42.85;32.05;;;;;;;12.69;52.11;100444.63;4901532;28;128344;-58
2021/01/03 00:31:11;;;;;;;45.55;32.35;;;;;;;12.72;52.05;100443.25;4902730;28;117797;-59
2021/01/03 00:33:37;;;;;;;44.13;31.35;;;;;;;12.72;52.16;100451.34;4899702;28;118874;-59
2021/01/03 00:36:04;;;;;;;45.92;31.98;;;;;;;12.71;52.08;100447.03;4902097;28;118302;-59
2021/01/03 00:38:30;;;;;;;48.95;32.97;;;;;;;12.71;52.32;100444.34;4884129;28;112063;-59
2021/01/03 00:40:56;;;;;;;48.45;34.33;;;;;;;12.71;52.03;100433.53;4902511;28;98104;-58
2021/01/03 00:43:23;;;;;;;46.40;32.20;;;;;;;12.70;52.05;100426.50;4902533;28;128047;-59
2021/01/03 00:45:49;;;;;;;49.63;33.33;;;;;;;12.71;51.91;100411.88;4902147;28;98392;-59
2021/01/03 00:48:15;;;;;;;49.88;34.00;;;;;;;12.70;52.03;100408.38;4901963;28;97958;-59
2021/01/03 00:50:41;;;;;;;50.13;34.22;;;;;;;12.69;52.04;100397.81;4902137;28;118149;-59
2021/01/03 00:53:07;;;;;;;48.22;33.60;;;;;;;12.71;51.98;100407.28;4900705;28;128048;-59
2021/01/03 00:55:33;;;;;;;53.42;34.42;;;;;;;12.69;52.27;100411.34;4883933;28;98369;-58
2021/01/03 00:57:59;;;;;;;50.95;34.05;;;;;;;12.68;52.61;100404.34;4899986;28;102543;-59
2021/01/03 01:00:31;;;;;;;49.40;33.95;;;;;;;12.68;52.04;100418.66;4882820;28;118160;-59
2021/01/03 01:02:58;;;;;;;53.53;35.15;;;;;;;12.68;52.00;100412.44;4901964;28;98523;-58
2021/01/03 01:05:25;;;;;;;52.03;35.28;;;;;;;12.68;52.23;100432.19;4901595;28;98207;-59
2021/01/03 01:07:51;;;;;;;53.03;34.38;;;;;;;12.69;52.15;100425.72;4905344;28;105936;-59
2021/01/03 01:10:24;;;;;;;53.08;35.00;;;;;;;12.68;52.30;100418.66;4905365;28;97861;-59
2021/01/03 01:12:50;;;;;;;;;;;;;;;12.59;52.38;100408.75;4905540;28;116974;-59
2021/01/03 01:15:19;;;;;;;52.03;34.20;;;;;;;12.65;52.24;100410.31;4905868;28;104630;-59
2021/01/03 01:17:47;;;;;;;56.47;35.40;;;;;;;12.64;52.23;100411.41;4905318;28;98241;-59
2021/01/03 01:20:14;;;;;;;54.22;35.47;;;;;;;12.63;51.97;100407.09;4913521;28;97966;-59
2021/01/03 01:22:40;;;;;;;54.67;36.15;;;;;;;12.64;52.07;100409.50;4905329;28;108880;-59
2021/01/03 01:25:07;;;;;;;54.50;36.22;;;;;;;12.65;51.99;100413.81;4905592;28;98835;-59
2021/01/03 01:27:33;;;;;;;59.22;36.42;;;;;;;12.64;52.10;100406.78;4903957;28;110495;-59
2021/01/03 01:29:59;;;;;;;54.45;36.17;;;;;;;12.63;51.67;100409.78;4905781;28;117232;-59
2021/01/03 01:32:25;;;;;;;56.08;36.60;;;;;;;12.63;51.99;100413.28;4905291;28;97910;-59
2021/01/03 01:34:51;;;;;;;59.05;36.20;;;;;;;12.62;52.04;100394.66;4903748;28;126146;-60
2021/01/03 01:37:17;;;;;;;55.92;36.22;;;;;;;12.63;51.67;100393.56;4904223;28;125914;-59
2021/01/03 01:39:43;;;;;;;57.90;36.42;;;;;;;12.63;52.17;100396.28;4904154;28;117770;-59
2021/01/03 01:42:09;;;;;;;57.70;37.25;;;;;;;12.61;51.86;100398.44;4904442;28;126984;-58
2021/01/03 01:44:35;;;;;;;58.75;36.63;;;;;;;12.61;51.91;100393.81;4903824;28;128536;-59
2021/01/03 01:47:06;;;;;;;57.70;36.88;;;;;;;12.59;51.99;100392.53;4903968;28;128868;-59
2021/01/03 01:49:41;;;;;;;59.22;35.97;;;;;;;12.59;51.95;100397.94;4887968;28;98250;-59
2021/01/03 01:52:08;;;;;;;55.15;35.55;;;;;;;12.60;51.89;100391.41;4871363;28;111883;-58
2021/01/03 01:54:36;;;;;;;54.05;35.33;;;;;;;12.58;51.93;100388.22;4886576;28;119428;-59
2021/01/03 01:57:15;;;;;;;59.65;36.22;;;;;;;12.58;52.07;100389.00;4902395;28;98222;-60
2021/01/03 02:00:23;;;;;;;53.50;35.08;;;;;;;12.54;52.12;100387.97;4886685;28;106653;-58
2021/01/03 02:03:19;;;;;;;54.47;34.42;;;;;;;12.54;52.16;100387.97;4902895;28;98397;-59
2021/01/03 02:06:00;;;;;;;58.53;34.85;;;;;;;12.57;52.07;100386.56;4900850;28;118836;-58
2021/01/03 02:08:45;;;;;;;55.63;34.88;;;;;;;12.56;52.16;100395.78;4904195;28;118226;-58
2021/01/03 02:11:18;;;;;;;57.03;34.72;;;;;;;12.55;52.46;100386.88;4903462;28;98007;-59
2021/01/03 02:13:50;;;;;;;53.08;33.67;;;;;;;12.57;52.32;100373.06;4883161;28;98517;-59
2021/01/03 02:16:18;;;;;;;53.78;34.03;;;;;;;12.61;52.11;100371.41;4884744;28;99358;-59
2021/01/03 02:18:45;;;;;;;52.75;34.30;;;;;;;12.64;51.78;100368.94;4876831;28;120211;-59
2021/01/03 02:21:39;;;;;;;55.70;34.40;;;;;;;12.65;51.77;100361.63;4887197;28;99330;-59
2021/01/03 02:24:09;;;;;;;56.75;34.70;;;;;;;12.65;51.93;100365.13;4886010;28;120022;-59
2021/01/03 02:26:41;;;;;;;53.75;35.03;;;;;;;12.64;51.80;100354.59;4901750;28;117112;-59
2021/01/03 02:29:09;;;;;;;54.45;34.33;;;;;;;12.64;51.91;100363.53;4886351;28;98212;-59
2021/01/03 02:31:42;;;;;;;52.25;33.85;;;;;;;12.64;51.93;100346.50;4904405;28;107439;-58
2021/01/03 02:34:09;;;;;;;;;;;;;;;12.59;52.08;100335.72;4886483;28;98685;-59
2021/01/03 02:36:42;;;;;;;50.92;32.00;;;;;;;12.59;51.89;100338.44;4902220;28;119398;-60
2021/01/03 02:39:33;;;;;;;52.38;32.80;;;;;;;12.57;51.97;100346.00;4870615;28;98530;-58
2021/01/03 02:42:10;;;;;;;48.38;31.88;;;;;;;12.56;52.18;100331.69;4903003;28;97891;-58
2021/01/03 02:44:36;;;;;;;52.95;33.67;;;;;;;12.56;52.05;100347.13;4903516;28;120124;-59
2021/01/03 02:47:02;;;;;;;52.40;33.85;;;;;;;12.57;52.01;100330.59;4902688;28;126154;-58
2021/01/03 02:49:28;;;;;;;51.38;32.05;;;;;;;12.55;52.34;100332.78;4885983;28;98992;-58
2021/01/03 02:51:54;;;;;;;50.22;31.58;;;;;;;12.57;52.15;100332.50;4903097;28;115888;-58
2021/01/03 02:54:20;;;;;;;51.08;32.53;;;;;;;12.53;52.19;100321.44;4884231;28;127876;-58
2021/01/03 02:56:47;;;;;;;49.40;31.00;;;;;;;12.54;52.17;100325.78;4902762;28;128401;-58
2021/01/03 02:59:13;;;;;;;50.03;31.27;;;;;;;12.51;52.12;100327.13;4904083;28;98470;-59
2021/01/03 03:01:39;;;;;;;46.22;30.08;;;;;;;12.49;52.12;100321.19;4903975;28;117688;-59
2021/01/03 03:04:05;;;;;;;49.58;30.95;;;;;;;12.47;52.25;100319.88;4903070;28;119094;-58
2021/01/03 03:06:31;;;;;;;48.85;30.85;;;;;;;12.46;52.15;100324.50;4902675;28;129115;-58
2021/01/03 03:08:57;;;;;;;47.42;30.63;;;;;;;12.45;52.37;100316.63;4901986;28;127446;-58
2021/01/03 03:11:23;;;;;;;46.58;30.80;;;;;;;12.42;52.30;100312.63;4902962;28;117269;-59
2021/01/03 03:13:49;;;;;;;44.92;29.73;;;;;;;12.37;52.38;100306.44;4893352;28;98279;-59
2021/01/03 03:16:18;;;;;;;43.85;29.17;;;;;;;12.35;52.43;100308.63;4902863;28;127903;-59
2021/01/03 03:18:45;;;;;;;42.92;29.17;;;;;;;12.35;52.47;100297.81;4903472;28;103370;-59
2021/01/03 03:21:11;;;;;;;45.40;29.10;;;;;;;12.33;52.37;100295.38;4904004;28;97734;-58
2021/01/03 03:23:37;;;;;;;43.85;28.52;;;;;;;12.33;52.84;100300.78;4895131;28;98109;-59
2021/01/03 03:26:03;;;;;;;43.10;27.88;;;;;;;12.31;52.60;100294.88;4902428;28;128960;-59
2021/01/03 03:28:29;;;;;;;43.55;28.02;;;;;;;12.30;52.79;100290.56;4893929;28;114675;-58
2021/01/03 03:30:55;;;;;;;45.08;28.48;;;;;;;12.27;52.55;100289.22;4903500;28;97988;-58
2021/01/03 03:33:21;;;;;;;38.47;26.40;;;;;;;12.24;52.51;100292.47;4894202;28;128021;-58
2021/01/03 03:35:47;;;;;;;38.33;26.13;;;;;;;12.27;52.44;100291.13;4902400;28;128303;-58
2021/01/03 03:38:13;;;;;;;40.60;26.92;;;;;;;12.25;52.74;100296.78;4894777;28;127834;-58
2021/01/03 03:40:39;;;;;;;36.30;25.70;;;;;;;12.24;52.56;100291.69;4904102;28;98016;-58
2021/01/03 03:43:07;;;;;;;38.78;25.30;;;;;;;12.21;52.92;100290.34;4896013;28;98409;-58
2021/01/03 03:45:33;;;;;;;37.08;24.60;;;;;;;12.23;52.92;100287.38;4903225;28;102968;-59
2021/01/03 03:48:00;;;;;;;35.55;24.55;;;;;;;12.22;52.91;100291.97;4895074;28;127442;-58
2021/01/03 03:50:26;;;;;;;35.67;23.55;;;;;;;12.20;52.76;100277.94;4882713;28;117747;-59
2021/01/03 03:52:52;;;;;;;36.33;23.98;;;;;;;12.18;52.65;100284.69;4897075;28;98416;-58
2021/01/03 03:55:18;;;;;;;35.47;23.02;;;;;;;12.20;52.82;100277.13;4900850;28;98548;-59
2021/01/03 03:57:44;;;;;;;36.08;23.20;;;;;;;12.19;52.84;100275.53;4885050;28;97991;-59
2021/01/03 04:00:17;;;;;;;34.72;22.95;;;;;;;12.15;52.65;100277.97;4884946;28;117240;-59
2021/01/03 04:02:44;;;;;;;33.75;23.17;;;;;;;12.17;52.57;100269.56;4898279;28;99691;-59
2021/01/03 04:05:12;;;;;;;31.65;22.30;;;;;;;12.16;52.71;100262.56;4898415;28;98612;-58
2021/01/03 04:07:38;;;;;;;32.28;22.27;;;;;;;12.17;52.73;100264.16;4898950;28;97934;-59
2021/01/03 04:10:06;;;;;;;33.75;21.70;;;;;;;12.14;52.64;100265.53;4898575;28;117805;-58
2021/01/03 04:12:32;;;;;;;32.78;22.05;;;;;;;12.13;53.07;100258.53;4899671;28;98949;-58
2021/01/03 04:14:58;;;;;;;30.38;21.67;;;;;;;12.13;53.05;100263.13;4897026;28;115839;-59
2021/01/03 04:17:24;;;;;;;30.25;21.23;;;;;;;12.11;52.62;100260.72;4899629;28;125648;-58
2021/01/03 04:19:50;;;;;;;30.77;20.88;;;;;;;12.11;52.63;100257.22;4896425;28;118763;-58
2021/01/03 04:22:16;;;;;;;30.38;20.45;;;;;;;12.11;52.82;100254.50;4900564;28;127959;-59
2021/01/03 04:24:42;;;;;;;31.95;20.83;;;;;;;12.11;53.00;100254.50;4873439;28;118592;-60
2021/01/03 04:27:09;;;;;;;26.38;19.02;;;;;;;12.10;53.01;100250.97;4898158;28;127363;-59
2021/01/03 04:29:36;;;;;;;26.38;18.48;;;;;;;12.10;53.17;100253.69;4903714;28;98133;-58
2021/01/03 04:32:04;;;;;;;26.35;18.48;;;;;;;12.10;52.87;100255.56;4903184;28;98058;-59
2021/01/03 04:34:30;;;;;;;27.92;18.85;;;;;;;12.07;52.98;100254.25;4893893;28;111260;-58
2021/01/03 04:36:57;;;;;;;25.40;19.23;;;;;;;12.08;52.60;100246.97;4901112;28;128382;-58
2021/01/03 04:39:23;;;;;;;27.92;18.33;;;;;;;12.06;52.86;100251.81;4893818;28;97706;-59
2021/01/03 04:41:55;;;;;;;25.58;18.00;;;;;;;12.07;53.03;100253.47;4884699;28;98684;-59
2021/01/03 04:44:36;;;;;;;23.83;17.73;;;;;;;12.06;52.70;100252.63;4876807;28;98933;-58
2021/01/03 04:47:25;;;;;;;22.83;16.60;;;;;;;12.01;52.83;100253.47;4884958;28;98488;-59
2021/01/03 04:50:07;;;;;;;23.85;16.15;;;;;;;12.00;52.87;100256.47;4872899;28;98113;-58
2021/01/03 04:53:00;;;;;;;24.10;16.30;;;;;;;11.98;52.88;100254.03;4898457;28;98338;-58
2021/01/03 04:55:28;;;;;;;22.27;15.60;;;;;;;11.98;52.81;100254.03;4883525;28;98440;-59
2021/01/03 04:58:13;;;;;;;20.77;15.45;;;;;;;11.97;53.13;100248.94;4894109;28;117522;-58
2021/01/03 05:00:55;;;;;;;20.48;14.85;;;;;;;11.93;53.41;100258.69;4894651;28;98151;-58
2021/01/03 05:03:58;;;;;;;19.52;14.00;;;;;;;11.91;53.02;100255.47;4885217;28;98305;-58
2021/01/03 05:06:25;;;;;;;18.85;14.05;;;;;;;11.91;53.14;100258.97;4854086;28;98737;-58
2021/01/03 05:09:03;;;;;;;20.45;13.88;;;;;;;11.89;52.87;100254.94;4883837;28;98297;-59
2021/01/03 05:12:02;;;;;;;21.60;14.13;;;;;;;11.87;53.10;100257.09;4883555;28;97933;-59
2021/01/03 05:14:59;;;;;;;19.30;13.30;;;;;;;11.87;53.25;100254.38;4863800;28;99234;-58
2021/01/03 05:17:25;;;;;;;16.45;12.50;;;;;;;11.90;53.40;100259.22;4884255;28;98563;-61
2021/01/03 05:19:52;;;;;;;16.85;13.00;;;;;;;11.89;53.11;100254.94;4895860;28;127138;-59
2021/01/03 05:22:36;;;;;;;18.17;12.77;;;;;;;11.85;53.37;100251.97;4899502;28;117767;-58
2021/01/03 05:25:06;;;;;;;16.00;11.98;;;;;;;11.87;53.29;100266.03;4897137;28;99441;-59
2021/01/03 05:27:32;;;;;;;16.55;12.38;;;;;;;11.90;53.04;100264.63;4897171;28;119165;-58
2021/01/03 05:30:26;;;;;;;16.90;11.82;;;;;;;11.86;53.18;100261.69;4896542;28;126661;-59
2021/01/03 05:32:52;;;;;;;15.05;11.50;;;;;;;11.87;53.22;100257.91;4895834;28;97960;-59
2021/01/03 05:35:21;;;;;;;14.63;10.95;;;;;;;11.89;53.23;100265.72;4898927;28;127265;-58
2021/01/03 05:37:47;;;;;;;15.13;11.50;;;;;;;11.88;53.36;100264.13;4896838;28;98299;-58
2021/01/03 05:40:33;;;;;;;15.00;10.50;;;;;;;11.86;53.07;100258.19;4896396;28;118960;-58
2021/01/03 05:43:18;;;;;;;13.18;10.15;;;;;;;11.84;53.44;100260.38;4896024;28;97780;-59
2021/01/03 05:45:57;;;;;;;14.95;10.27;;;;;;;11.85;53.32;100260.09;4894929;28;99167;-58
2021/01/03 05:48:26;;;;;;;15.43;10.70;;;;;;;11.85;53.63;100254.69;4875274;28;111682;-58
2021/01/03 05:50:52;;;;;;;14.95;10.68;;;;;;;11.87;53.14;100255.22;4901939;28;104334;-58
2021/01/03 05:53:26;;;;;;;13.52;9.88;;;;;;;11.86;53.17;100250.09;4894451;28;97994;-58
2021/01/03 05:55:58;;;;;;;15.25;10.43;;;;;;;11.86;53.21;100250.88;4887721;28;98081;-59
2021/01/03 05:58:41;;;;;;;14.45;10.13;;;;;;;11.87;53.50;100257.91;4895501;28;98665;-58
2021/01/03 06:01:31;;;;;;;13.23;9.88;;;;;;;11.80;53.78;100254.69;4888408;28;98253;-59
2021/01/03 06:04:05;;;;;;;13.25;9.55;;;;;;;11.83;53.55;100254.16;4896634;28;97905;-59
2021/01/03 06:06:51;;;;;;;12.07;9.32;;;;;;;11.81;53.69;100256.28;4905067;28;98530;-59
2021/01/03 06:09:20;;;;;;;13.98;9.30;;;;;;;11.84;53.19;100252.28;4844374;28;98284;-59
2021/01/03 06:12:19;;;;;;;12.07;9.05;;;;;;;11.78;53.27;100256.84;4848361;28;113027;-58
2021/01/03 06:14:53;;;;;;;11.70;9.18;;;;;;;11.81;53.46;100256.28;4891381;28;97991;-58
2021/01/03 06:17:31;;;;;;;11.20;9.00;;;;;;;11.78;53.16;100260.34;4901722;28;98622;-58
2021/01/03 06:20:18;;;;;;;14.23;9.18;;;;;;;11.78;53.20;100259.56;4866520;28;98635;-59
2021/01/03 06:23:06;;;;;;;12.07;9.00;;;;;;;11.77;53.20;100256.03;4880885;28;98463;-58
2021/01/03 06:25:54;;;;;;;12.15;8.93;;;;;;;11.73;53.50;100252.28;4883963;28;97841;-60
2021/01/03 06:28:23;;;;;;;11.10;8.23;;;;;;;11.76;53.20;100249.03;4874709;28;98926;-58
2021/01/03 06:31:32;;;;;;;11.10;8.02;;;;;;;11.78;53.69;100246.84;4890643;28;99104;-58
2021/01/03 06:34:20;;;;;;;9.93;7.85;;;;;;;11.77;53.42;100249.84;4869834;28;98061;-59
2021/01/03 06:37:08;;;;;;;11.90;8.65;;;;;;;11.76;53.13;100246.34;4864908;28;98119;-59
2021/01/03 06:40:01;;;;;;;12.23;8.80;;;;;;;11.74;53.79;100239.59;4836354;28;101109;-59
2021/01/03 06:42:42;;;;;;;10.50;7.78;;;;;;;11.75;53.75;100246.59;4869799;28;98311;-59
2021/01/03 06:45:41;;;;;;;9.93;7.50;;;;;;;11.76;53.15;100232.03;4904847;28;98127;-58
2021/01/03 06:48:51;;;;;;;8.93;7.07;;;;;;;11.73;53.76;100240.69;4902150;28;97993;-58
2021/01/03 06:51:30;;;;;;;10.68;7.35;;;;;;;11.74;53.68;100236.91;4839268;28;98490;-59
2021/01/03 06:54:34;;;;;;;8.75;6.78;;;;;;;11.70;53.73;100231.25;4860251;28;99281;-59
2021/01/03 06:57:26;;;;;;;10.07;7.20;;;;;;;11.71;53.50;100234.75;4897518;28;117591;-58
2021/01/03 07:00:16;;;;;;;9.75;6.93;;;;;;;11.71;53.25;100232.06;4898642;28;98303;-58
2021/01/03 07:02:49;;;;;;;9.77;6.97;;;;;;;11.73;53.63;100228.00;4882638;28;98767;-58
2021/01/03 07:05:15;;;;;;;9.70;6.82;;;;;;;11.76;53.43;100229.34;4882619;28;98612;-59
2021/01/03 07:07:52;;;;;;;8.50;6.72;;;;;;;11.76;53.37;100232.03;4879896;28;97909;-59
2021/01/03 07:10:20;;;;;;;8.48;6.47;;;;;;;11.75;53.70;100231.22;4881253;28;98054;-59
2021/01/03 07:12:49;;;;;;;8.77;6.70;;;;;;;11.75;53.64;100230.41;4901256;28;99460;-59
2021/01/03 07:15:24;;;;;;;9.07;6.60;;;;;;;11.73;53.53;100235.28;4893629;28;99014;-58
2021/01/03 07:17:57;;;;;;;8.40;6.13;;;;;;;11.75;53.77;100242.03;4898929;28;97939;-58
2021/01/03 07:20:50;;;;;;;8.20;6.35;;;;;;;11.74;53.39;100243.09;4892485;28;97958;-59
2021/01/03 07:23:38;;;;;;;9.27;6.72;;;;;;;11.72;53.63;100239.09;4882358;28;98267;-59
2021/01/03 07:26:28;;;;;;;8.02;6.35;;;;;;;11.72;53.85;100239.88;4883959;28;116840;-59
2021/01/03 07:29:00;;;;;;;8.80;6.55;;;;;;;11.76;53.65;100242.84;4882125;28;100711;-58
2021/01/03 07:31:41;;;;;;;8.10;6.23;;;;;;;11.72;53.95;100239.09;4882645;28;107633;-59
2021/01/03 07:34:12;;;;;;;9.13;6.80;;;;;;;11.72;53.57;100237.19;4881207;28;99087;-59
2021/01/03 07:36:43;;;;;;;8.68;6.60;;;;;;;11.73;54.12;100233.41;4884659;28;111180;-59
2021/01/03 07:39:27;;;;;;;9.68;6.68;;;;;;;11.71;53.98;100235.59;4882430;28;98292;-59
2021/01/03 07:42:26;;;;;;;10.63;6.53;;;;;;;11.69;53.73;100236.94;4901275;28;98092;-59
2021/01/03 07:44:53;;;;;;;8.40;6.32;;;;;;;11.74;53.75;100232.28;4901382;28;98289;-59
2021/01/03 07:47:44;;;;;;;8.20;6.43;;;;;;;11.70;53.87;100239.34;4882524;28;100118;-58
2021/01/03 07:50:37;;;;;;;8.55;6.43;;;;;;;11.72;54.25;100233.69;4899339;28;97944;-58
2021/01/03 07:53:29;;;;;;;9.18;6.60;;;;;;;11.62;54.46;100239.13;4892603;28;99906;-58
2021/01/03 07:56:17;;;;;;;25.25;7.38;;;;;;;11.47;54.97;100245.44;4875794;28;98526;-59
2021/01/03 07:58:43;;;;;;;14.90;6.45;;;;;;;11.27;55.27;100246.34;4879304;28;98795;-58
2021/01/03 08:01:09;;;;;;;15.68;6.97;;;;;;;11.11;55.94;100245.59;4880845;28;118656;-58
2021/01/03 08:03:35;;;;;;;15.95;7.10;;;;;;;10.96;56.17;100251.84;4879338;28;98070;-59
2021/01/03 08:06:07;;;;;;;12.13;6.63;;;;;;;10.76;56.37;100255.41;4899964;28;121671;-59
2021/01/03 08:08:33;;;;;;;11.38;6.00;;;;;;;10.68;56.71;100249.78;4894676;28;100821;-58
2021/01/03 08:11:24;;;;;;;15.02;6.82;;;;;;;10.56;57.13;100250.88;4878486;28;127290;-59
2021/01/03 08:13:55;;;;;;;10.98;6.70;;;;;;;10.44;57.49;100254.94;4867830;28;98235;-58
2021/01/03 08:16:25;;;;;;;9.55;6.72;;;;;;;10.34;57.70;100268.44;4847179;28;105389;-58
2021/01/03 08:19:06;;;;;;;9.85;6.43;;;;;;;10.23;57.91;100259.50;4862714;28;109602;-58
2021/01/03 08:21:38;;;;;;;10.65;6.43;;;;;;;10.17;58.62;100264.06;4879439;28;116509;-59
2021/01/03 08:24:16;;;;;;;9.53;6.20;;;;;;;10.08;58.25;100258.41;4874899;28;102703;-58
2021/01/03 08:27:09;;;;;;;10.00;6.13;;;;;;;10.02;59.42;100262.19;4899273;28;98766;-59
2021/01/03 08:29:54;;;;;;;;;;;;;;;9.95;59.00;100263.53;4882184;28;121800;-58
2021/01/03 08:32:26;;;;;;;8.90;6.03;;;;;;;9.87;59.38;100262.19;4892801;28;118261;-58
2021/01/03 08:35:00;;;;;;;10.98;6.72;;;;;;;9.86;59.18;100265.94;4863629;28;97789;-59
2021/01/03 08:37:40;;;;;;;9.90;6.20;;;;;;;9.87;59.33;100272.94;4879479;28;98401;-58
2021/01/03 08:40:14;;;;;;;8.63;6.15;;;;;;;9.86;60.11;100276.69;4896556;28;98270;-58
2021/01/03 08:42:42;;;;;;;10.20;6.68;;;;;;;9.88;60.10;100271.88;4898980;28;98032;-60
2021/01/03 08:45:12;;;;;;;9.90;6.80;;;;;;;9.83;59.74;100266.47;4882914;28;98360;-58
2021/01/03 08:47:40;;;;;;;11.02;7.50;;;;;;;9.78;60.92;100272.63;4876730;28;112448;-60
2021/01/03 08:50:18;;;;;;;11.68;7.55;;;;;;;9.79;61.71;100268.09;4878667;28;98617;-57
2021/01/03 08:52:57;;;;;;;11.20;7.22;;;;;;;9.84;62.79;100268.09;4873435;28;98074;-60
2021/01/03 08:55:23;;;;;;;14.68;7.50;;;;;;;9.81;63.90;100274.00;4862577;28;98108;-59
2021/01/03 08:58:01;;;;;;;13.40;7.60;;;;;;;9.88;65.15;100284.53;4861324;28;98521;-57
2021/01/03 09:00:33;;;;;;;11.65;7.68;;;;;;;9.88;65.34;100276.44;4843259;28;99018;-57
2021/01/03 09:03:00;;;;;;;;;;;;;;;9.93;65.04;100274.56;4844104;28;98220;-57
2021/01/03 09:05:30;;;;;;;11.77;8.00;;;;;;;9.89;65.96;100283.44;4867955;28;98033;-62
2021/01/03 09:07:56;;;;;;;11.88;7.85;;;;;;;9.91;66.31;100287.50;4850097;28;99144;-60
2021/01/03 09:10:30;;;;;;;11.75;7.55;;;;;;;9.96;66.56;100284.78;4855192;28;128383;-60
2021/01/03 09:13:12;;;;;;;10.90;7.38;;;;;;;9.99;66.00;100283.47;4843252;28;98565;-57
2021/01/03 09:15:39;;;;;;;10.40;7.65;;;;;;;9.95;65.38;100285.88;4846237;28;107500;-59
2021/01/03 09:18:41;;;;;;;11.48;7.43;;;;;;;9.97;65.29;100280.22;4858897;28;98937;-71
2021/01/03 09:21:11;;;;;;;32.03;8.73;;;;;;;9.87;64.91;100281.03;4860130;28;114726;-60
2021/01/03 09:23:40;;;;;;;28.88;8.07;;;;;;;9.73;65.03;100285.28;3970336;28;10000305;-62
2021/01/03 09:26:06;;;;;;;24.38;10.00;;;;;;;9.67;65.85;100280.97;4850221;28;98537;-62
2021/01/03 09:28:34;;;;;;;31.65;10.75;;;;;;;9.83;64.23;100288.00;4817433;28;98475;-62
2021/01/03 09:31:10;;;;;;;22.15;10.80;;;;;;;9.66;64.89;100285.53;4836129;28;98063;-62
2021/01/03 09:33:36;;;;;;;17.08;9.60;;;;;;;9.84;64.24;100286.94;3988135;28;10000832;-62
2021/01/03 09:36:11;;;;;;;16.15;9.52;;;;;;;9.89;64.62;100289.63;4881988;28;98170;-60
2021/01/03 09:38:40;;;;;;;17.45;8.90;;;;;;;9.82;64.34;100284.53;4863346;28;98507;-62
2021/01/03 09:41:24;;;;;;;16.65;9.10;;;;;;;9.90;64.27;100290.44;4881948;28;98426;-62
2021/01/03 09:44:01;;;;;;;16.83;9.13;;;;;;;10.05;63.94;100293.97;4881685;28;97993;-62
2021/01/03 09:46:32;;;;;;;15.15;8.38;;;;;;;10.11;63.62;100280.50;4879273;28;99117;-61
2021/01/03 09:49:20;;;;;;;14.63;8.75;;;;;;;10.21;63.38;100284.00;4863094;28;98611;-59
2021/01/03 09:52:07;;;;;;;13.55;8.27;;;;;;;10.30;61.63;100281.63;4879396;28;108780;-61
2021/01/03 09:55:16;;;;;;;11.35;7.60;;;;;;;10.38;61.46;100286.47;4904912;28;97988;-61
2021/01/03 09:58:02;;;;;;;10.93;7.57;;;;;;;10.45;61.78;100278.94;4906193;28;110525;-62
2021/01/03 10:00:56;;;;;;;11.75;7.38;;;;;;;10.56;61.51;100282.41;4899113;28;98891;-61
2021/01/03 10:03:43;;;;;;;9.15;7.25;;;;;;;10.64;61.39;100283.75;4892173;28;108351;-62
2021/01/03 10:06:33;;;;;;;9.82;6.80;;;;;;;10.74;61.79;100286.44;4909964;28;121190;-62
2021/01/03 10:09:17;;;;;;;9.43;7.03;;;;;;;10.75;61.81;100274.56;4893094;28;97853;-62
2021/01/03 10:11:44;;;;;;;9.68;6.90;;;;;;;10.84;61.69;100280.19;4907511;28;105364;-62
2021/01/03 10:14:34;;;;;;;11.48;6.95;;;;;;;10.86;61.06;100280.75;4914248;28;99112;-61
2021/01/03 10:17:16;;;;;;;9.90;6.95;;;;;;;10.91;61.03;100278.03;4893875;28;116117;-62
2021/01/03 10:19:42;;;;;;;10.80;7.07;;;;;;;10.95;61.15;100273.72;4901538;28;103738;-62
2021/01/03 10:22:40;;;;;;;9.82;7.53;;;;;;;10.97;60.85;100275.06;4899131;28;122853;-62
2021/01/03 10:25:11;;;;;;;11.98;8.30;;;;;;;11.05;61.50;100269.09;4899211;28;123552;-62
2021/01/03 10:27:37;;;;;;;10.75;8.88;;;;;;;11.09;60.82;100263.16;4895264;28;98161;-61
2021/01/03 10:30:10;;;;;;;11.20;8.52;;;;;;;11.09;61.21;100269.34;4896041;28;118318;-61
2021/01/03 10:32:37;;;;;;;10.98;8.80;;;;;;;11.17;61.08;100267.97;4897495;28;116703;-61
2021/01/03 10:35:06;;;;;;;11.85;8.95;;;;;;;11.18;61.14;100261.50;4897358;28;98837;-62
2021/01/03 10:37:32;;;;;;;11.50;9.55;;;;;;;11.22;60.99;100262.56;4896603;28;117034;-62
2021/01/03 10:39:58;;;;;;;10.52;8.80;;;;;;;11.26;60.82;100250.13;4895311;28;118689;-62
2021/01/03 10:42:24;;;;;;;11.05;8.55;;;;;;;11.29;61.08;100252.28;4898021;28;127335;-61
2021/01/03 10:44:50;;;;;;;11.25;9.10;;;;;;;11.34;60.20;100246.03;4017715;28;10001207;-62
2021/01/03 10:47:16;;;;;;;9.82;8.10;;;;;;;11.33;60.39;100255.22;4899696;28;98082;-62
2021/01/03 10:49:42;;;;;;;9.48;8.07;;;;;;;11.39;60.41;100249.50;4876492;28;98259;-62
2021/01/03 10:52:08;;;;;;;8.73;7.78;;;;;;;11.42;60.91;100257.06;4900771;28;108247;-62
2021/01/03 10:54:34;;;;;;;9.57;8.30;;;;;;;11.42;60.55;100250.84;4907049;28;118771;-62
2021/01/03 10:57:00;;;;;;;9.05;7.88;;;;;;;11.46;60.62;100254.63;4900753;28;114326;-61
2021/01/03 10:59:27;;;;;;;10.93;8.05;;;;;;;11.47;60.74;100256.22;4892298;28;128699;-62
2021/01/03 11:01:53;;;;;;;9.93;7.53;;;;;;;11.46;60.83;100260.81;4901121;28;98383;-62
2021/01/03 11:04:21;;;;;;;8.77;7.68;;;;;;;11.45;60.97;100255.72;4892765;28;98805;-61
2021/01/03 11:06:50;;;;;;;9.27;7.45;;;;;;;11.44;60.92;100259.50;4901240;28;98364;-62
2021/01/03 11:09:29;;;;;;;9.82;7.93;;;;;;;11.43;61.06;100255.16;4892799;28;102258;-64
2021/01/03 11:12:09;;;;;;;8.48;7.28;;;;;;;11.43;61.43;100249.75;4900123;28;98010;-62
2021/01/03 11:14:35;;;;;;;9.20;7.13;;;;;;;11.42;60.73;100250.84;4900820;28;98184;-61
2021/01/03 11:17:04;;;;;;;8.25;7.03;;;;;;;11.42;61.21;100253.56;4900211;28;119170;-60
2021/01/03 11:19:30;;;;;;;10.27;8.52;;;;;;;11.48;61.27;100255.16;4892676;28;98657;-62
2021/01/03 11:22:00;;;;;;;12.68;9.55;;;;;;;11.43;61.49;100257.88;4899303;28;126060;-61
2021/01/03 11:24:26;;;;;;;10.65;9.00;;;;;;;11.45;60.95;100256.50;4898677;28;105709;-62
2021/01/03 11:26:53;;;;;;;13.18;9.23;;;;;;;11.48;61.16;100252.47;4882695;28;108977;-62
2021/01/03 11:29:25;;;;;;;9.30;8.05;;;;;;;11.54;60.98;100254.03;4891566;28;125355;-61
2021/01/03 11:31:56;;;;;;;10.13;8.68;;;;;;;11.55;60.76;100248.38;4899599;28;97870;-61
2021/01/03 11:34:26;;;;;;;9.13;7.65;;;;;;;11.53;60.66;100255.94;4892907;28;97762;-63
2021/01/03 11:36:55;;;;;;;9.13;8.07;;;;;;;11.55;60.77;100242.97;4899942;28;113971;-62
2021/01/03 11:39:22;;;;;;;9.25;7.97;;;;;;;11.60;60.64;100244.81;4893028;28;98907;-62
2021/01/03 11:41:49;;;;;;;9.60;7.28;;;;;;;11.61;60.63;100248.34;4899488;28;97944;-61